sensor_id;sensor_type;location;lat;lon;timestamp;P1;durP1;ratioP1;P2;durP2;ratioP2
6031;SDS011;3044;43.232;27.972;2022-11-20T00:01:29;11.03;;;4.80;;
6031;SDS011;3044;43.232;27.972;2022-11-20T00:03:57;16.77;;;5.43;;
6031;SDS011;3044;43.232;27.972;2022-11-20T00:06:25;17.33;;;5.07;;
6031;SDS011;3044;43.232;27.972;2022-11-20T00:08:54;15.10;;;5.03;;
6031;SDS011;3044;43.232;27.972;2022-11-20T00:11:23;15.20;;;5.30;;
6031;SDS011;3044;43.232;27.972;2022-11-20T00:13:53;24.07;;;5.97;;
6031;SDS011;3044;43.232;27.972;2022-11-20T00:16:23;31.50;;;6.27;;
6031;SDS011;3044;43.232;27.972;2022-11-20T00:18:51;11.17;;;4.80;;
6031;SDS011;3044;43.232;27.972;2022-11-20T00:21:20;17.50;;;4.40;;
6031;SDS011;3044;43.232;27.972;2022-11-20T00:23:48;9.33;;;4.13;;
6031;SDS011;3044;43.232;27.972;2022-11-20T00:26:17;20.83;;;4.87;;
6031;SDS011;3044;43.232;27.972;2022-11-20T00:28:48;13.97;;;4.83;;
6031;SDS011;3044;43.232;27.972;2022-11-20T00:31:18;13.80;;;4.87;;
6031;SDS011;3044;43.232;27.972;2022-11-20T00:33:46;13.97;;;4.83;;
6031;SDS011;3044;43.232;27.972;2022-11-20T00:36:13;28.57;;;5.73;;
6031;SDS011;3044;43.232;27.972;2022-11-20T00:38:41;15.37;;;4.70;;
6031;SDS011;3044;43.232;27.972;2022-11-20T00:41:09;21.63;;;5.67;;
6031;SDS011;3044;43.232;27.972;2022-11-20T00:43:38;14.63;;;4.70;;
6031;SDS011;3044;43.232;27.972;2022-11-20T00:46:06;19.80;;;5.10;;
6031;SDS011;3044;43.232;27.972;2022-11-20T00:48:35;10.13;;;4.03;;
6031;SDS011;3044;43.232;27.972;2022-11-20T00:51:02;23.20;;;5.20;;
6031;SDS011;3044;43.232;27.972;2022-11-20T00:53:30;26.00;;;5.37;;
6031;SDS011;3044;43.232;27.972;2022-11-20T00:55:58;17.43;;;5.27;;
6031;SDS011;3044;43.232;27.972;2022-11-20T00:58:29;15.30;;;4.30;;
6031;SDS011;3044;43.232;27.972;2022-11-20T01:00:59;12.53;;;5.00;;
6031;SDS011;3044;43.232;27.972;2022-11-20T01:03:30;21.00;;;5.00;;
6031;SDS011;3044;43.232;27.972;2022-11-20T01:06:03;10.63;;;5.40;;
6031;SDS011;3044;43.232;27.972;2022-11-20T01:08:31;14.30;;;4.83;;
6031;SDS011;3044;43.232;27.972;2022-11-20T01:11:00;11.73;;;4.90;;
6031;SDS011;3044;43.232;27.972;2022-11-20T01:13:28;17.20;;;5.03;;
6031;SDS011;3044;43.232;27.972;2022-11-20T01:16:06;16.37;;;5.43;;
6031;SDS011;3044;43.232;27.972;2022-11-20T01:18:34;23.13;;;5.40;;
6031;SDS011;3044;43.232;27.972;2022-11-20T01:21:05;14.93;;;4.60;;
6031;SDS011;3044;43.232;27.972;2022-11-20T01:23:34;12.47;;;4.77;;
6031;SDS011;3044;43.232;27.972;2022-11-20T01:26:03;15.57;;;4.50;;
6031;SDS011;3044;43.232;27.972;2022-11-20T01:28:32;14.03;;;4.20;;
6031;SDS011;3044;43.232;27.972;2022-11-20T01:31:00;17.00;;;5.47;;
6031;SDS011;3044;43.232;27.972;2022-11-20T01:33:28;15.67;;;4.70;;
6031;SDS011;3044;43.232;27.972;2022-11-20T01:36:04;18.87;;;5.20;;
6031;SDS011;3044;43.232;27.972;2022-11-20T01:38:32;24.97;;;5.50;;
6031;SDS011;3044;43.232;27.972;2022-11-20T01:40:59;11.00;;;4.80;;
6031;SDS011;3044;43.232;27.972;2022-11-20T01:43:27;18.30;;;4.80;;
6031;SDS011;3044;43.232;27.972;2022-11-20T01:48:44;22.90;;;5.70;;
6031;SDS011;3044;43.232;27.972;2022-11-20T01:51:19;15.20;;;5.07;;
6031;SDS011;3044;43.232;27.972;2022-11-20T01:53:50;16.67;;;5.60;;
6031;SDS011;3044;43.232;27.972;2022-11-20T01:56:20;24.27;;;4.50;;
6031;SDS011;3044;43.232;27.972;2022-11-20T01:58:50;17.03;;;5.00;;
6031;SDS011;3044;43.232;27.972;2022-11-20T02:01:19;14.97;;;5.07;;
6031;SDS011;3044;43.232;27.972;2022-11-20T02:03:47;20.13;;;4.67;;
6031;SDS011;3044;43.232;27.972;2022-11-20T02:06:19;12.30;;;5.00;;
6031;SDS011;3044;43.232;27.972;2022-11-20T02:08:50;27.43;;;5.00;;
6031;SDS011;3044;43.232;27.972;2022-11-20T02:11:18;12.17;;;4.43;;
6031;SDS011;3044;43.232;27.972;2022-11-20T02:13:45;12.77;;;4.33;;
6031;SDS011;3044;43.232;27.972;2022-11-20T02:16:15;19.63;;;5.40;;
6031;SDS011;3044;43.232;27.972;2022-11-20T02:18:46;15.40;;;4.80;;
6031;SDS011;3044;43.232;27.972;2022-11-20T02:21:17;28.87;;;5.20;;
6031;SDS011;3044;43.232;27.972;2022-11-20T02:24:03;14.67;;;4.07;;
6031;SDS011;3044;43.232;27.972;2022-11-20T02:26:33;11.90;;;4.97;;
6031;SDS011;3044;43.232;27.972;2022-11-20T02:29:04;18.40;;;4.20;;
6031;SDS011;3044;43.232;27.972;2022-11-20T02:31:38;19.93;;;4.70;;
6031;SDS011;3044;43.232;27.972;2022-11-20T02:34:08;17.23;;;4.60;;
6031;SDS011;3044;43.232;27.972;2022-11-20T02:36:35;12.17;;;4.60;;
6031;SDS011;3044;43.232;27.972;2022-11-20T02:39:06;13.70;;;4.70;;
6031;SDS011;3044;43.232;27.972;2022-11-20T02:41:36;6.30;;;3.40;;
6031;SDS011;3044;43.232;27.972;2022-11-20T02:44:04;10.70;;;4.40;;
6031;SDS011;3044;43.232;27.972;2022-11-20T02:46:32;14.73;;;4.63;;
6031;SDS011;3044;43.232;27.972;2022-11-20T02:49:00;13.50;;;4.20;;
6031;SDS011;3044;43.232;27.972;2022-11-20T02:51:29;14.87;;;4.40;;
6031;SDS011;3044;43.232;27.972;2022-11-20T02:53:56;9.40;;;4.47;;
6031;SDS011;3044;43.232;27.972;2022-11-20T02:56:25;13.63;;;4.27;;
6031;SDS011;3044;43.232;27.972;2022-11-20T02:58:52;12.10;;;4.50;;
6031;SDS011;3044;43.232;27.972;2022-11-20T03:01:19;20.20;;;4.80;;
6031;SDS011;3044;43.232;27.972;2022-11-20T03:03:47;14.97;;;4.97;;
6031;SDS011;3044;43.232;27.972;2022-11-20T03:06:14;16.63;;;5.03;;
6031;SDS011;3044;43.232;27.972;2022-11-20T03:08:42;10.90;;;4.00;;
6031;SDS011;3044;43.232;27.972;2022-11-20T03:11:09;20.83;;;4.57;;
6031;SDS011;3044;43.232;27.972;2022-11-20T03:13:38;20.87;;;4.10;;
6031;SDS011;3044;43.232;27.972;2022-11-20T03:16:09;15.77;;;4.30;;
6031;SDS011;3044;43.232;27.972;2022-11-20T03:18:38;16.33;;;5.03;;
6031;SDS011;3044;43.232;27.972;2022-11-20T03:21:05;16.60;;;4.73;;
6031;SDS011;3044;43.232;27.972;2022-11-20T03:23:33;21.20;;;4.57;;
6031;SDS011;3044;43.232;27.972;2022-11-20T03:26:08;11.10;;;3.90;;
6031;SDS011;3044;43.232;27.972;2022-11-20T03:28:36;18.33;;;4.47;;
6031;SDS011;3044;43.232;27.972;2022-11-20T03:31:06;12.33;;;4.07;;
6031;SDS011;3044;43.232;27.972;2022-11-20T03:33:34;20.13;;;4.80;;
6031;SDS011;3044;43.232;27.972;2022-11-20T03:36:02;25.10;;;4.20;;
6031;SDS011;3044;43.232;27.972;2022-11-20T03:38:30;15.10;;;4.00;;
6031;SDS011;3044;43.232;27.972;2022-11-20T03:40:58;10.80;;;4.20;;
6031;SDS011;3044;43.232;27.972;2022-11-20T03:43:26;23.20;;;4.63;;
6031;SDS011;3044;43.232;27.972;2022-11-20T03:45:55;13.57;;;5.07;;
6031;SDS011;3044;43.232;27.972;2022-11-20T03:48:22;23.57;;;4.63;;
6031;SDS011;3044;43.232;27.972;2022-11-20T03:50:50;18.07;;;5.40;;
6031;SDS011;3044;43.232;27.972;2022-11-20T03:53:17;15.97;;;4.77;;
6031;SDS011;3044;43.232;27.972;2022-11-20T03:55:45;18.93;;;5.23;;
6031;SDS011;3044;43.232;27.972;2022-11-20T03:58:16;23.67;;;6.03;;
6031;SDS011;3044;43.232;27.972;2022-11-20T04:00:43;16.73;;;4.90;;
6031;SDS011;3044;43.232;27.972;2022-11-20T04:03:12;18.57;;;5.20;;
6031;SDS011;3044;43.232;27.972;2022-11-20T04:05:39;15.27;;;5.57;;
6031;SDS011;3044;43.232;27.972;2022-11-20T04:08:06;20.93;;;5.53;;
6031;SDS011;3044;43.232;27.972;2022-11-20T04:10:33;17.07;;;4.30;;
6031;SDS011;3044;43.232;27.972;2022-11-20T04:13:00;16.43;;;4.90;;
6031;SDS011;3044;43.232;27.972;2022-11-20T04:15:27;18.27;;;4.60;;
6031;SDS011;3044;43.232;27.972;2022-11-20T04:17:55;18.70;;;5.07;;
6031;SDS011;3044;43.232;27.972;2022-11-20T04:20:23;14.50;;;4.73;;
6031;SDS011;3044;43.232;27.972;2022-11-20T04:22:52;22.80;;;4.53;;
6031;SDS011;3044;43.232;27.972;2022-11-20T04:25:21;27.20;;;5.50;;
6031;SDS011;3044;43.232;27.972;2022-11-20T04:27:48;16.27;;;5.13;;
6031;SDS011;3044;43.232;27.972;2022-11-20T04:30:15;16.37;;;4.70;;
6031;SDS011;3044;43.232;27.972;2022-11-20T04:32:42;22.90;;;5.67;;
6031;SDS011;3044;43.232;27.972;2022-11-20T04:35:10;16.73;;;4.93;;
6031;SDS011;3044;43.232;27.972;2022-11-20T04:37:38;15.50;;;4.73;;
6031;SDS011;3044;43.232;27.972;2022-11-20T04:40:05;18.87;;;4.90;;
6031;SDS011;3044;43.232;27.972;2022-11-20T04:42:33;12.33;;;4.10;;
6031;SDS011;3044;43.232;27.972;2022-11-20T04:45:00;10.00;;;4.00;;
6031;SDS011;3044;43.232;27.972;2022-11-20T04:47:27;12.50;;;3.70;;
6031;SDS011;3044;43.232;27.972;2022-11-20T04:49:54;13.53;;;4.60;;
6031;SDS011;3044;43.232;27.972;2022-11-20T04:52:21;19.33;;;4.20;;
6031;SDS011;3044;43.232;27.972;2022-11-20T04:54:50;13.67;;;4.63;;
6031;SDS011;3044;43.232;27.972;2022-11-20T04:57:18;12.53;;;4.30;;
6031;SDS011;3044;43.232;27.972;2022-11-20T04:59:45;24.13;;;4.30;;
6031;SDS011;3044;43.232;27.972;2022-11-20T05:02:12;16.33;;;4.40;;
6031;SDS011;3044;43.232;27.972;2022-11-20T05:04:39;17.50;;;4.20;;
6031;SDS011;3044;43.232;27.972;2022-11-20T05:07:07;20.40;;;5.97;;
6031;SDS011;3044;43.232;27.972;2022-11-20T05:09:34;10.80;;;3.83;;
6031;SDS011;3044;43.232;27.972;2022-11-20T05:12:02;16.43;;;4.13;;
6031;SDS011;3044;43.232;27.972;2022-11-20T05:14:30;19.60;;;5.53;;
6031;SDS011;3044;43.232;27.972;2022-11-20T05:16:57;15.67;;;3.87;;
6031;SDS011;3044;43.232;27.972;2022-11-20T05:19:24;12.40;;;4.20;;
6031;SDS011;3044;43.232;27.972;2022-11-20T05:21:51;20.57;;;3.93;;
6031;SDS011;3044;43.232;27.972;2022-11-20T05:24:18;12.30;;;4.03;;
6031;SDS011;3044;43.232;27.972;2022-11-20T05:26:45;11.23;;;2.93;;
6031;SDS011;3044;43.232;27.972;2022-11-20T05:29:14;11.63;;;3.37;;
6031;SDS011;3044;43.232;27.972;2022-11-20T05:31:41;14.53;;;4.70;;
6031;SDS011;3044;43.232;27.972;2022-11-20T05:34:08;20.70;;;4.80;;
6031;SDS011;3044;43.232;27.972;2022-11-20T05:36:36;20.47;;;3.73;;
6031;SDS011;3044;43.232;27.972;2022-11-20T05:39:03;11.53;;;4.43;;
6031;SDS011;3044;43.232;27.972;2022-11-20T05:41:30;13.00;;;3.40;;
6031;SDS011;3044;43.232;27.972;2022-11-20T05:43:59;26.57;;;5.10;;
6031;SDS011;3044;43.232;27.972;2022-11-20T05:46:28;14.43;;;4.00;;
6031;SDS011;3044;43.232;27.972;2022-11-20T05:48:55;24.83;;;4.53;;
6031;SDS011;3044;43.232;27.972;2022-11-20T05:51:24;26.20;;;4.53;;
6031;SDS011;3044;43.232;27.972;2022-11-20T05:53:52;15.30;;;3.70;;
6031;SDS011;3044;43.232;27.972;2022-11-20T05:56:19;25.17;;;4.90;;
6031;SDS011;3044;43.232;27.972;2022-11-20T05:58:47;20.27;;;4.13;;
6031;SDS011;3044;43.232;27.972;2022-11-20T06:01:15;20.10;;;4.47;;
6031;SDS011;3044;43.232;27.972;2022-11-20T06:03:57;11.03;;;3.90;;
6031;SDS011;3044;43.232;27.972;2022-11-20T06:06:24;17.13;;;4.80;;
6031;SDS011;3044;43.232;27.972;2022-11-20T06:08:51;23.67;;;4.40;;
6031;SDS011;3044;43.232;27.972;2022-11-20T06:11:18;13.57;;;3.83;;
6031;SDS011;3044;43.232;27.972;2022-11-20T06:13:46;20.20;;;4.63;;
6031;SDS011;3044;43.232;27.972;2022-11-20T06:16:14;13.43;;;4.73;;
6031;SDS011;3044;43.232;27.972;2022-11-20T06:18:43;13.27;;;4.47;;
6031;SDS011;3044;43.232;27.972;2022-11-20T06:21:13;11.90;;;3.87;;
6031;SDS011;3044;43.232;27.972;2022-11-20T06:23:41;21.37;;;3.97;;
6031;SDS011;3044;43.232;27.972;2022-11-20T06:26:09;7.30;;;4.00;;
6031;SDS011;3044;43.232;27.972;2022-11-20T06:28:38;20.33;;;4.70;;
6031;SDS011;3044;43.232;27.972;2022-11-20T06:31:06;29.67;;;6.03;;
6031;SDS011;3044;43.232;27.972;2022-11-20T06:33:34;13.30;;;4.07;;
6031;SDS011;3044;43.232;27.972;2022-11-20T06:36:02;18.10;;;4.67;;
6031;SDS011;3044;43.232;27.972;2022-11-20T06:38:32;28.33;;;4.83;;
6031;SDS011;3044;43.232;27.972;2022-11-20T06:40:59;24.87;;;4.77;;
6031;SDS011;3044;43.232;27.972;2022-11-20T06:43:28;11.10;;;3.67;;
6031;SDS011;3044;43.232;27.972;2022-11-20T06:45:55;14.73;;;3.80;;
6031;SDS011;3044;43.232;27.972;2022-11-20T06:48:25;21.60;;;5.20;;
6031;SDS011;3044;43.232;27.972;2022-11-20T06:50:52;25.80;;;4.50;;
6031;SDS011;3044;43.232;27.972;2022-11-20T06:53:20;27.63;;;6.20;;
6031;SDS011;3044;43.232;27.972;2022-11-20T06:55:49;16.93;;;5.80;;
6031;SDS011;3044;43.232;27.972;2022-11-20T06:58:17;18.93;;;5.20;;
6031;SDS011;3044;43.232;27.972;2022-11-20T07:00:44;10.83;;;3.23;;
6031;SDS011;3044;43.232;27.972;2022-11-20T07:03:11;19.87;;;4.30;;
6031;SDS011;3044;43.232;27.972;2022-11-20T07:05:39;16.43;;;3.90;;
6031;SDS011;3044;43.232;27.972;2022-11-20T07:08:06;15.80;;;4.30;;
6031;SDS011;3044;43.232;27.972;2022-11-20T07:10:34;16.23;;;4.47;;
6031;SDS011;3044;43.232;27.972;2022-11-20T07:13:02;15.37;;;4.40;;
6031;SDS011;3044;43.232;27.972;2022-11-20T07:15:30;29.37;;;4.80;;
6031;SDS011;3044;43.232;27.972;2022-11-20T07:17:58;23.27;;;4.47;;
6031;SDS011;3044;43.232;27.972;2022-11-20T07:20:25;17.97;;;4.43;;
6031;SDS011;3044;43.232;27.972;2022-11-20T07:22:53;17.13;;;6.03;;
6031;SDS011;3044;43.232;27.972;2022-11-20T07:25:21;19.27;;;5.33;;
6031;SDS011;3044;43.232;27.972;2022-11-20T07:27:48;16.37;;;5.13;;
6031;SDS011;3044;43.232;27.972;2022-11-20T07:30:17;16.83;;;5.03;;
6031;SDS011;3044;43.232;27.972;2022-11-20T07:32:46;28.40;;;5.73;;
6031;SDS011;3044;43.232;27.972;2022-11-20T07:35:13;18.97;;;4.57;;
6031;SDS011;3044;43.232;27.972;2022-11-20T07:37:40;29.03;;;4.60;;
6031;SDS011;3044;43.232;27.972;2022-11-20T07:40:08;25.87;;;5.50;;
6031;SDS011;3044;43.232;27.972;2022-11-20T07:42:35;25.80;;;5.67;;
6031;SDS011;3044;43.232;27.972;2022-11-20T07:45:03;24.03;;;5.40;;
6031;SDS011;3044;43.232;27.972;2022-11-20T07:47:35;38.60;;;7.10;;
6031;SDS011;3044;43.232;27.972;2022-11-20T07:50:03;22.90;;;7.23;;
6031;SDS011;3044;43.232;27.972;2022-11-20T07:52:30;19.27;;;6.80;;
6031;SDS011;3044;43.232;27.972;2022-11-20T07:54:57;26.83;;;5.37;;
6031;SDS011;3044;43.232;27.972;2022-11-20T07:57:25;13.10;;;4.30;;
6031;SDS011;3044;43.232;27.972;2022-11-20T07:59:52;16.00;;;5.67;;
6031;SDS011;3044;43.232;27.972;2022-11-20T08:02:19;23.83;;;5.60;;
6031;SDS011;3044;43.232;27.972;2022-11-20T08:04:47;25.47;;;4.70;;
6031;SDS011;3044;43.232;27.972;2022-11-20T08:07:14;28.57;;;5.23;;
6031;SDS011;3044;43.232;27.972;2022-11-20T08:09:42;32.60;;;5.97;;
6031;SDS011;3044;43.232;27.972;2022-11-20T08:12:09;23.83;;;6.40;;
6031;SDS011;3044;43.232;27.972;2022-11-20T08:15:00;20.97;;;5.03;;
6031;SDS011;3044;43.232;27.972;2022-11-20T08:17:27;20.20;;;5.30;;
6031;SDS011;3044;43.232;27.972;2022-11-20T08:19:56;24.90;;;6.23;;
6031;SDS011;3044;43.232;27.972;2022-11-20T08:22:24;21.10;;;6.87;;
6031;SDS011;3044;43.232;27.972;2022-11-20T08:24:51;21.70;;;5.70;;
6031;SDS011;3044;43.232;27.972;2022-11-20T08:27:18;19.47;;;6.60;;
6031;SDS011;3044;43.232;27.972;2022-11-20T08:29:47;16.57;;;6.83;;
6031;SDS011;3044;43.232;27.972;2022-11-20T08:32:18;31.73;;;6.47;;
6031;SDS011;3044;43.232;27.972;2022-11-20T08:34:49;25.73;;;5.50;;
6031;SDS011;3044;43.232;27.972;2022-11-20T08:37:20;30.77;;;7.20;;
6031;SDS011;3044;43.232;27.972;2022-11-20T08:39:47;16.90;;;6.80;;
6031;SDS011;3044;43.232;27.972;2022-11-20T08:42:14;26.13;;;5.37;;
6031;SDS011;3044;43.232;27.972;2022-11-20T08:44:41;25.43;;;5.47;;
6031;SDS011;3044;43.232;27.972;2022-11-20T08:47:08;12.73;;;4.33;;
6031;SDS011;3044;43.232;27.972;2022-11-20T08:49:36;25.73;;;4.70;;
6031;SDS011;3044;43.232;27.972;2022-11-20T08:52:03;33.17;;;6.77;;
6031;SDS011;3044;43.232;27.972;2022-11-20T08:54:32;17.90;;;5.50;;
6031;SDS011;3044;43.232;27.972;2022-11-20T08:56:59;18.50;;;5.03;;
6031;SDS011;3044;43.232;27.972;2022-11-20T08:59:26;30.30;;;9.10;;
6031;SDS011;3044;43.232;27.972;2022-11-20T09:01:54;23.23;;;6.00;;
6031;SDS011;3044;43.232;27.972;2022-11-20T09:04:21;24.40;;;4.63;;
6031;SDS011;3044;43.232;27.972;2022-11-20T09:06:48;24.73;;;7.10;;
6031;SDS011;3044;43.232;27.972;2022-11-20T09:09:16;17.53;;;5.50;;
6031;SDS011;3044;43.232;27.972;2022-11-20T09:11:45;15.27;;;5.70;;
6031;SDS011;3044;43.232;27.972;2022-11-20T09:14:15;26.97;;;6.23;;
6031;SDS011;3044;43.232;27.972;2022-11-20T09:16:44;23.07;;;5.67;;
6031;SDS011;3044;43.232;27.972;2022-11-20T09:19:11;19.27;;;5.17;;
6031;SDS011;3044;43.232;27.972;2022-11-20T09:21:38;24.20;;;6.00;;
6031;SDS011;3044;43.232;27.972;2022-11-20T09:24:06;28.20;;;6.00;;
6031;SDS011;3044;43.232;27.972;2022-11-20T09:26:33;27.93;;;5.83;;
6031;SDS011;3044;43.232;27.972;2022-11-20T09:29:01;16.57;;;5.47;;
6031;SDS011;3044;43.232;27.972;2022-11-20T09:31:29;31.27;;;6.10;;
6031;SDS011;3044;43.232;27.972;2022-11-20T09:33:56;22.90;;;7.80;;
6031;SDS011;3044;43.232;27.972;2022-11-20T09:36:23;35.80;;;7.53;;
6031;SDS011;3044;43.232;27.972;2022-11-20T09:38:51;27.50;;;6.03;;
6031;SDS011;3044;43.232;27.972;2022-11-20T09:44:23;30.73;;;5.93;;
6031;SDS011;3044;43.232;27.972;2022-11-20T09:47:01;34.00;;;6.37;;
6031;SDS011;3044;43.232;27.972;2022-11-20T09:49:36;38.13;;;8.33;;
6031;SDS011;3044;43.232;27.972;2022-11-20T09:52:20;25.03;;;6.43;;
6031;SDS011;3044;43.232;27.972;2022-11-20T09:54:56;13.13;;;4.57;;
6031;SDS011;3044;43.232;27.972;2022-11-20T09:57:29;23.67;;;6.10;;
6031;SDS011;3044;43.232;27.972;2022-11-20T10:00:04;26.67;;;5.33;;
6031;SDS011;3044;43.232;27.972;2022-11-20T10:02:39;20.20;;;4.90;;
6031;SDS011;3044;43.232;27.972;2022-11-20T10:05:11;14.47;;;4.73;;
6031;SDS011;3044;43.232;27.972;2022-11-20T10:07:46;15.93;;;4.30;;
6031;SDS011;3044;43.232;27.972;2022-11-20T10:10:22;17.83;;;4.60;;
6031;SDS011;3044;43.232;27.972;2022-11-20T10:13:11;16.77;;;5.27;;
6031;SDS011;3044;43.232;27.972;2022-11-20T10:15:55;76.60;;;27.13;;
6031;SDS011;3044;43.232;27.972;2022-11-20T10:18:49;50.50;;;17.37;;
6031;SDS011;3044;43.232;27.972;2022-11-20T10:21:30;58.07;;;20.70;;
6031;SDS011;3044;43.232;27.972;2022-11-20T10:24:17;49.77;;;18.50;;
6031;SDS011;3044;43.232;27.972;2022-11-20T10:27:02;33.17;;;8.30;;
6031;SDS011;3044;43.232;27.972;2022-11-20T10:29:42;22.00;;;6.60;;
6031;SDS011;3044;43.232;27.972;2022-11-20T10:32:16;21.50;;;7.73;;
6031;SDS011;3044;43.232;27.972;2022-11-20T10:34:46;38.17;;;9.67;;
6031;SDS011;3044;43.232;27.972;2022-11-20T10:37:18;34.77;;;7.40;;
6031;SDS011;3044;43.232;27.972;2022-11-20T10:39:50;31.80;;;8.70;;
6031;SDS011;3044;43.232;27.972;2022-11-20T10:42:26;31.37;;;7.67;;
6031;SDS011;3044;43.232;27.972;2022-11-20T10:44:59;31.57;;;9.87;;
6031;SDS011;3044;43.232;27.972;2022-11-20T10:47:39;24.40;;;9.23;;
6031;SDS011;3044;43.232;27.972;2022-11-20T10:50:09;26.03;;;5.60;;
6031;SDS011;3044;43.232;27.972;2022-11-20T10:52:42;19.87;;;5.20;;
6031;SDS011;3044;43.232;27.972;2022-11-20T10:55:25;32.07;;;6.73;;
6031;SDS011;3044;43.232;27.972;2022-11-20T10:58:00;15.83;;;6.10;;
6031;SDS011;3044;43.232;27.972;2022-11-20T11:00:36;32.50;;;6.53;;
6031;SDS011;3044;43.232;27.972;2022-11-20T11:03:07;19.53;;;6.03;;
6031;SDS011;3044;43.232;27.972;2022-11-20T11:05:48;22.63;;;8.40;;
6031;SDS011;3044;43.232;27.972;2022-11-20T11:08:18;27.97;;;9.63;;
6031;SDS011;3044;43.232;27.972;2022-11-20T11:10:47;36.30;;;11.77;;
6031;SDS011;3044;43.232;27.972;2022-11-20T11:13:19;22.33;;;7.07;;
6031;SDS011;3044;43.232;27.972;2022-11-20T11:15:47;26.57;;;6.13;;
6031;SDS011;3044;43.232;27.972;2022-11-20T11:18:24;22.43;;;5.10;;
6031;SDS011;3044;43.232;27.972;2022-11-20T11:20:53;25.13;;;5.50;;
6031;SDS011;3044;43.232;27.972;2022-11-20T11:23:32;27.07;;;7.50;;
6031;SDS011;3044;43.232;27.972;2022-11-20T11:26:02;23.60;;;5.43;;
6031;SDS011;3044;43.232;27.972;2022-11-20T11:28:31;24.60;;;5.67;;
6031;SDS011;3044;43.232;27.972;2022-11-20T11:30:58;22.90;;;6.70;;
6031;SDS011;3044;43.232;27.972;2022-11-20T11:33:27;31.83;;;7.37;;
6031;SDS011;3044;43.232;27.972;2022-11-20T11:35:56;26.23;;;6.60;;
6031;SDS011;3044;43.232;27.972;2022-11-20T11:38:28;17.63;;;4.83;;
6031;SDS011;3044;43.232;27.972;2022-11-20T11:40:57;24.00;;;5.20;;
6031;SDS011;3044;43.232;27.972;2022-11-20T11:43:25;24.80;;;5.70;;
6031;SDS011;3044;43.232;27.972;2022-11-20T11:46:20;16.20;;;4.57;;
6031;SDS011;3044;43.232;27.972;2022-11-20T11:48:59;23.93;;;5.30;;
6031;SDS011;3044;43.232;27.972;2022-11-20T11:51:32;36.80;;;6.20;;
6031;SDS011;3044;43.232;27.972;2022-11-20T11:54:05;14.40;;;4.67;;
6031;SDS011;3044;43.232;27.972;2022-11-20T11:56:50;24.57;;;6.17;;
6031;SDS011;3044;43.232;27.972;2022-11-20T11:59:21;21.27;;;5.50;;
6031;SDS011;3044;43.232;27.972;2022-11-20T12:01:54;29.00;;;6.27;;
6031;SDS011;3044;43.232;27.972;2022-11-20T12:04:34;30.37;;;7.30;;
6031;SDS011;3044;43.232;27.972;2022-11-20T12:07:10;23.83;;;6.17;;
6031;SDS011;3044;43.232;27.972;2022-11-20T12:09:43;28.37;;;7.30;;
6031;SDS011;3044;43.232;27.972;2022-11-20T12:12:17;32.67;;;7.10;;
6031;SDS011;3044;43.232;27.972;2022-11-20T12:14:48;24.70;;;5.67;;
6031;SDS011;3044;43.232;27.972;2022-11-20T12:17:18;23.10;;;5.57;;
6031;SDS011;3044;43.232;27.972;2022-11-20T12:19:47;34.30;;;6.23;;
6031;SDS011;3044;43.232;27.972;2022-11-20T12:22:17;29.53;;;5.57;;
6031;SDS011;3044;43.232;27.972;2022-11-20T12:24:54;31.27;;;4.93;;
6031;SDS011;3044;43.232;27.972;2022-11-20T12:30:22;24.93;;;6.00;;
6031;SDS011;3044;43.232;27.972;2022-11-20T12:36:06;31.10;;;6.30;;
6031;SDS011;3044;43.232;27.972;2022-11-20T12:41:43;30.87;;;6.00;;
6031;SDS011;3044;43.232;27.972;2022-11-20T12:44:51;30.67;;;7.17;;
6031;SDS011;3044;43.232;27.972;2022-11-20T12:47:47;28.10;;;5.67;;
6031;SDS011;3044;43.232;27.972;2022-11-20T12:50:23;26.67;;;6.23;;
6031;SDS011;3044;43.232;27.972;2022-11-20T12:53:09;37.83;;;7.10;;
6031;SDS011;3044;43.232;27.972;2022-11-20T12:55:46;37.80;;;6.10;;
6031;SDS011;3044;43.232;27.972;2022-11-20T12:58:22;33.70;;;7.87;;
6031;SDS011;3044;43.232;27.972;2022-11-20T13:00:56;34.07;;;7.80;;
6031;SDS011;3044;43.232;27.972;2022-11-20T13:03:37;39.43;;;6.90;;
6031;SDS011;3044;43.232;27.972;2022-11-20T13:06:10;33.40;;;7.37;;
6031;SDS011;3044;43.232;27.972;2022-11-20T13:08:43;25.33;;;7.27;;
6031;SDS011;3044;43.232;27.972;2022-11-20T13:11:16;39.07;;;8.77;;
6031;SDS011;3044;43.232;27.972;2022-11-20T13:13:56;41.40;;;9.70;;
6031;SDS011;3044;43.232;27.972;2022-11-20T13:16:34;33.10;;;7.60;;
6031;SDS011;3044;43.232;27.972;2022-11-20T13:19:08;37.10;;;8.77;;
6031;SDS011;3044;43.232;27.972;2022-11-20T13:21:38;39.17;;;8.13;;
6031;SDS011;3044;43.232;27.972;2022-11-20T13:24:19;37.53;;;7.67;;
6031;SDS011;3044;43.232;27.972;2022-11-20T13:26:59;47.77;;;7.10;;
6031;SDS011;3044;43.232;27.972;2022-11-20T13:29:27;34.87;;;8.77;;
6031;SDS011;3044;43.232;27.972;2022-11-20T13:32:02;45.20;;;8.50;;
6031;SDS011;3044;43.232;27.972;2022-11-20T13:34:33;36.60;;;8.20;;
6031;SDS011;3044;43.232;27.972;2022-11-20T13:37:01;52.10;;;8.30;;
6031;SDS011;3044;43.232;27.972;2022-11-20T13:39:32;29.63;;;6.80;;
6031;SDS011;3044;43.232;27.972;2022-11-20T13:42:00;41.17;;;9.03;;
6031;SDS011;3044;43.232;27.972;2022-11-20T13:44:30;41.17;;;8.40;;
6031;SDS011;3044;43.232;27.972;2022-11-20T13:47:03;37.53;;;7.17;;
6031;SDS011;3044;43.232;27.972;2022-11-20T13:49:31;54.60;;;11.10;;
6031;SDS011;3044;43.232;27.972;2022-11-20T13:52:07;66.87;;;10.60;;
6031;SDS011;3044;43.232;27.972;2022-11-20T13:55:05;44.50;;;11.43;;
6031;SDS011;3044;43.232;27.972;2022-11-20T13:57:49;40.23;;;10.20;;
6031;SDS011;3044;43.232;27.972;2022-11-20T14:00:29;39.10;;;9.63;;
6031;SDS011;3044;43.232;27.972;2022-11-20T14:03:01;35.10;;;10.20;;
6031;SDS011;3044;43.232;27.972;2022-11-20T14:05:38;49.50;;;8.10;;
6031;SDS011;3044;43.232;27.972;2022-11-20T14:08:17;44.77;;;9.17;;
6031;SDS011;3044;43.232;27.972;2022-11-20T14:11:06;28.03;;;8.90;;
6031;SDS011;3044;43.232;27.972;2022-11-20T14:13:39;40.00;;;8.70;;
6031;SDS011;3044;43.232;27.972;2022-11-20T14:16:06;40.90;;;7.60;;
6031;SDS011;3044;43.232;27.972;2022-11-20T14:18:35;42.23;;;7.90;;
6031;SDS011;3044;43.232;27.972;2022-11-20T14:21:03;46.43;;;9.10;;
6031;SDS011;3044;43.232;27.972;2022-11-20T14:23:30;50.27;;;8.73;;
6031;SDS011;3044;43.232;27.972;2022-11-20T14:25:57;54.93;;;8.70;;
6031;SDS011;3044;43.232;27.972;2022-11-20T14:28:27;56.17;;;8.00;;
6031;SDS011;3044;43.232;27.972;2022-11-20T14:30:55;48.87;;;8.53;;
6031;SDS011;3044;43.232;27.972;2022-11-20T14:33:23;36.17;;;7.90;;
6031;SDS011;3044;43.232;27.972;2022-11-20T14:35:53;40.67;;;8.60;;
6031;SDS011;3044;43.232;27.972;2022-11-20T14:38:22;39.10;;;9.00;;
6031;SDS011;3044;43.232;27.972;2022-11-20T14:40:52;40.73;;;7.93;;
6031;SDS011;3044;43.232;27.972;2022-11-20T14:43:21;53.43;;;8.93;;
6031;SDS011;3044;43.232;27.972;2022-11-20T14:45:54;51.00;;;8.83;;
6031;SDS011;3044;43.232;27.972;2022-11-20T14:48:28;39.80;;;8.30;;
6031;SDS011;3044;43.232;27.972;2022-11-20T14:50:58;29.80;;;7.70;;
6031;SDS011;3044;43.232;27.972;2022-11-20T14:53:25;59.13;;;8.77;;
6031;SDS011;3044;43.232;27.972;2022-11-20T14:55:57;38.67;;;8.00;;
6031;SDS011;3044;43.232;27.972;2022-11-20T14:58:26;40.73;;;7.17;;
6031;SDS011;3044;43.232;27.972;2022-11-20T15:00:56;35.27;;;7.50;;
6031;SDS011;3044;43.232;27.972;2022-11-20T15:03:30;36.33;;;7.87;;
6031;SDS011;3044;43.232;27.972;2022-11-20T15:05:58;37.57;;;8.70;;
6031;SDS011;3044;43.232;27.972;2022-11-20T15:08:26;46.10;;;9.60;;
6031;SDS011;3044;43.232;27.972;2022-11-20T15:10:53;57.00;;;9.57;;
6031;SDS011;3044;43.232;27.972;2022-11-20T15:13:25;40.13;;;8.57;;
6031;SDS011;3044;43.232;27.972;2022-11-20T15:15:57;48.93;;;8.90;;
6031;SDS011;3044;43.232;27.972;2022-11-20T15:18:27;55.57;;;9.93;;
6031;SDS011;3044;43.232;27.972;2022-11-20T15:20:57;40.17;;;10.37;;
6031;SDS011;3044;43.232;27.972;2022-11-20T15:23:27;41.90;;;9.57;;